sensor_id;sensor_type;location;lat;lon;timestamp;P1;durP1;ratioP1;P2;durP2;ratioP2
39434;SDS011;66825;51.880;-0.518;2023-03-01T00:01:08;1.63;;;0.40;;
39434;SDS011;66825;51.880;-0.518;2023-03-01T00:03:39;0.45;;;0.30;;
39434;SDS011;66825;51.880;-0.518;2023-03-01T00:06:05;0.28;;;0.22;;
39434;SDS011;66825;51.880;-0.518;2023-03-01T00:08:31;0.50;;;0.30;;
39434;SDS011;66825;51.880;-0.518;2023-03-01T00:13:40;0.80;;;0.40;;
39434;SDS011;66825;51.880;-0.518;2023-03-01T00:16:08;0.47;;;0.30;;
39434;SDS011;66825;51.880;-0.518;2023-03-01T00:18:38;0.22;;;0.20;;
39434;SDS011;66825;51.880;-0.518;2023-03-01T00:21:03;0.45;;;0.30;;
39434;SDS011;66825;51.880;-0.518;2023-03-01T00:23:30;0.68;;;0.40;;
39434;SDS011;66825;51.880;-0.518;2023-03-01T00:25:56;0.60;;;0.40;;
39434;SDS011;66825;51.880;-0.518;2023-03-01T00:28:22;0.20;;;0.20;;
39434;SDS011;66825;51.880;-0.518;2023-03-01T00:30:47;0.52;;;0.30;;
39434;SDS011;66825;51.880;-0.518;2023-03-01T00:33:13;0.60;;;0.47;;
39434;SDS011;66825;51.880;-0.518;2023-03-01T00:35:38;0.38;;;0.20;;
39434;SDS011;66825;51.880;-0.518;2023-03-01T00:38:04;0.63;;;0.30;;
39434;SDS011;66825;51.880;-0.518;2023-03-01T00:40:31;1.13;;;0.30;;
39434;SDS011;66825;51.880;-0.518;2023-03-01T00:42:58;0.85;;;0.30;;
39434;SDS011;66825;51.880;-0.518;2023-03-01T00:45:24;0.60;;;0.30;;
39434;SDS011;66825;51.880;-0.518;2023-03-01T00:47:50;0.55;;;0.35;;
39434;SDS011;66825;51.880;-0.518;2023-03-01T00:50:16;0.55;;;0.30;;
39434;SDS011;66825;51.880;-0.518;2023-03-01T00:52:42;0.60;;;0.30;;
39434;SDS011;66825;51.880;-0.518;2023-03-01T00:55:08;0.65;;;0.40;;
39434;SDS011;66825;51.880;-0.518;2023-03-01T00:57:34;0.60;;;0.40;;
39434;SDS011;66825;51.880;-0.518;2023-03-01T00:59:59;0.50;;;0.30;;
39434;SDS011;66825;51.880;-0.518;2023-03-01T01:02:25;0.30;;;0.28;;
39434;SDS011;66825;51.880;-0.518;2023-03-01T01:04:51;0.65;;;0.40;;
39434;SDS011;66825;51.880;-0.518;2023-03-01T01:07:17;0.40;;;0.28;;
39434;SDS011;66825;51.880;-0.518;2023-03-01T01:09:45;0.40;;;0.30;;
39434;SDS011;66825;51.880;-0.518;2023-03-01T01:12:11;0.70;;;0.32;;
39434;SDS011;66825;51.880;-0.518;2023-03-01T01:14:36;0.73;;;0.32;;
39434;SDS011;66825;51.880;-0.518;2023-03-01T01:17:02;0.10;;;0.10;;
39434;SDS011;66825;51.880;-0.518;2023-03-01T01:19:27;0.47;;;0.30;;
39434;SDS011;66825;51.880;-0.518;2023-03-01T01:21:53;0.50;;;0.30;;
39434;SDS011;66825;51.880;-0.518;2023-03-01T01:24:19;0.20;;;0.20;;
39434;SDS011;66825;51.880;-0.518;2023-03-01T01:26:44;0.32;;;0.30;;
39434;SDS011;66825;51.880;-0.518;2023-03-01T01:29:11;0.63;;;0.20;;
39434;SDS011;66825;51.880;-0.518;2023-03-01T01:31:38;0.75;;;0.30;;
39434;SDS011;66825;51.880;-0.518;2023-03-01T01:34:06;0.20;;;0.20;;
39434;SDS011;66825;51.880;-0.518;2023-03-01T01:36:33;0.30;;;0.20;;
39434;SDS011;66825;51.880;-0.518;2023-03-01T01:38:59;0.30;;;0.22;;
39434;SDS011;66825;51.880;-0.518;2023-03-01T01:41:26;0.40;;;0.30;;
39434;SDS011;66825;51.880;-0.518;2023-03-01T01:46:37;0.60;;;0.28;;
39434;SDS011;66825;51.880;-0.518;2023-03-01T01:51:54;0.32;;;0.20;;
39434;SDS011;66825;51.880;-0.518;2023-03-01T01:54:29;0.68;;;0.30;;
39434;SDS011;66825;51.880;-0.518;2023-03-01T01:57:03;0.40;;;0.25;;
39434;SDS011;66825;51.880;-0.518;2023-03-01T01:59:33;0.35;;;0.20;;
39434;SDS011;66825;51.880;-0.518;2023-03-01T02:02:00;0.30;;;0.20;;
39434;SDS011;66825;51.880;-0.518;2023-03-01T02:04:28;0.40;;;0.20;;
39434;SDS011;66825;51.880;-0.518;2023-03-01T02:07:07;0.43;;;0.30;;
39434;SDS011;66825;51.880;-0.518;2023-03-01T02:09:41;0.47;;;0.20;;
39434;SDS011;66825;51.880;-0.518;2023-03-01T02:12:10;0.40;;;0.30;;
39434;SDS011;66825;51.880;-0.518;2023-03-01T02:14:36;0.68;;;0.32;;
39434;SDS011;66825;51.880;-0.518;2023-03-01T02:17:02;0.40;;;0.30;;
39434;SDS011;66825;51.880;-0.518;2023-03-01T02:19:35;0.20;;;0.20;;
39434;SDS011;66825;51.880;-0.518;2023-03-01T02:22:31;0.60;;;0.32;;
39434;SDS011;66825;51.880;-0.518;2023-03-01T02:27:33;0.32;;;0.20;;
39434;SDS011;66825;51.880;-0.518;2023-03-01T02:30:05;0.30;;;0.20;;
39434;SDS011;66825;51.880;-0.518;2023-03-01T02:32:33;0.20;;;0.20;;
39434;SDS011;66825;51.880;-0.518;2023-03-01T02:34:59;0.30;;;0.20;;
39434;SDS011;66825;51.880;-0.518;2023-03-01T02:37:25;0.32;;;0.20;;
39434;SDS011;66825;51.880;-0.518;2023-03-01T02:39:58;0.40;;;0.20;;
39434;SDS011;66825;51.880;-0.518;2023-03-01T02:42:31;0.38;;;0.22;;
39434;SDS011;66825;51.880;-0.518;2023-03-01T02:45:00;0.47;;;0.20;;
39434;SDS011;66825;51.880;-0.518;2023-03-01T02:47:26;0.40;;;0.30;;
39434;SDS011;66825;51.880;-0.518;2023-03-01T02:49:51;0.32;;;0.20;;
39434;SDS011;66825;51.880;-0.518;2023-03-01T02:55:20;0.20;;;0.20;;
39434;SDS011;66825;51.880;-0.518;2023-03-01T02:57:46;0.30;;;0.20;;
39434;SDS011;66825;51.880;-0.518;2023-03-01T03:00:21;0.32;;;0.20;;
39434;SDS011;66825;51.880;-0.518;2023-03-01T03:02:50;0.60;;;0.30;;
39434;SDS011;66825;51.880;-0.518;2023-03-01T03:05:18;0.50;;;0.38;;
39434;SDS011;66825;51.880;-0.518;2023-03-01T03:07:49;0.50;;;0.30;;
39434;SDS011;66825;51.880;-0.518;2023-03-01T03:10:16;0.40;;;0.20;;
39434;SDS011;66825;51.880;-0.518;2023-03-01T03:13:03;0.50;;;0.22;;
39434;SDS011;66825;51.880;-0.518;2023-03-01T03:15:33;0.30;;;0.20;;
39434;SDS011;66825;51.880;-0.518;2023-03-01T03:18:02;0.63;;;0.30;;
39434;SDS011;66825;51.880;-0.518;2023-03-01T03:20:30;0.35;;;0.30;;
39434;SDS011;66825;51.880;-0.518;2023-03-01T03:22:57;0.10;;;0.10;;
39434;SDS011;66825;51.880;-0.518;2023-03-01T03:25:24;0.40;;;0.20;;
39434;SDS011;66825;51.880;-0.518;2023-03-01T03:27:50;0.95;;;0.32;;
39434;SDS011;66825;51.880;-0.518;2023-03-01T03:30:28;0.40;;;0.20;;
39434;SDS011;66825;51.880;-0.518;2023-03-01T03:32:56;0.35;;;0.20;;
39434;SDS011;66825;51.880;-0.518;2023-03-01T03:37:50;0.35;;;0.20;;
39434;SDS011;66825;51.880;-0.518;2023-03-01T03:40:38;0.20;;;0.20;;
39434;SDS011;66825;51.880;-0.518;2023-03-01T03:43:05;0.30;;;0.20;;
39434;SDS011;66825;51.880;-0.518;2023-03-01T03:45:32;0.40;;;0.20;;
39434;SDS011;66825;51.880;-0.518;2023-03-01T03:47:59;0.30;;;0.20;;
39434;SDS011;66825;51.880;-0.518;2023-03-01T03:50:25;0.35;;;0.20;;
39434;SDS011;66825;51.880;-0.518;2023-03-01T03:52:51;0.40;;;0.20;;
39434;SDS011;66825;51.880;-0.518;2023-03-01T03:55:17;0.20;;;0.20;;
39434;SDS011;66825;51.880;-0.518;2023-03-01T03:57:45;0.40;;;0.20;;
39434;SDS011;66825;51.880;-0.518;2023-03-01T04:00:19;0.38;;;0.28;;
39434;SDS011;66825;51.880;-0.518;2023-03-01T04:02:47;0.30;;;0.20;;
39434;SDS011;66825;51.880;-0.518;2023-03-01T04:05:15;0.20;;;0.20;;
39434;SDS011;66825;51.880;-0.518;2023-03-01T04:07:42;0.20;;;0.20;;
39434;SDS011;66825;51.880;-0.518;2023-03-01T04:10:09;0.40;;;0.20;;
39434;SDS011;66825;51.880;-0.518;2023-03-01T04:12:40;0.30;;;0.20;;
39434;SDS011;66825;51.880;-0.518;2023-03-01T04:15:06;0.57;;;0.20;;
39434;SDS011;66825;51.880;-0.518;2023-03-01T04:17:44;0.30;;;0.20;;
39434;SDS011;66825;51.880;-0.518;2023-03-01T04:20:13;0.17;;;0.17;;
39434;SDS011;66825;51.880;-0.518;2023-03-01T04:22:50;0.28;;;0.20;;
39434;SDS011;66825;51.880;-0.518;2023-03-01T04:25:17;0.40;;;0.20;;
39434;SDS011;66825;51.880;-0.518;2023-03-01T04:27:42;0.40;;;0.20;;
39434;SDS011;66825;51.880;-0.518;2023-03-01T04:30:08;0.43;;;0.20;;
39434;SDS011;66825;51.880;-0.518;2023-03-01T04:32:34;0.20;;;0.20;;
39434;SDS011;66825;51.880;-0.518;2023-03-01T04:35:00;0.20;;;0.20;;
39434;SDS011;66825;51.880;-0.518;2023-03-01T04:37:26;0.30;;;0.30;;
39434;SDS011;66825;51.880;-0.518;2023-03-01T04:39:52;0.17;;;0.17;;
39434;SDS011;66825;51.880;-0.518;2023-03-01T04:42:17;0.50;;;0.28;;
39434;SDS011;66825;51.880;-0.518;2023-03-01T04:44:44;0.40;;;0.20;;
39434;SDS011;66825;51.880;-0.518;2023-03-01T04:47:09;0.85;;;0.30;;
39434;SDS011;66825;51.880;-0.518;2023-03-01T04:49:35;0.43;;;0.30;;
39434;SDS011;66825;51.880;-0.518;2023-03-01T04:52:01;0.63;;;0.30;;
39434;SDS011;66825;51.880;-0.518;2023-03-01T04:54:33;0.57;;;0.20;;
39434;SDS011;66825;51.880;-0.518;2023-03-01T04:56:59;0.63;;;0.20;;
39434;SDS011;66825;51.880;-0.518;2023-03-01T04:59:26;0.30;;;0.20;;
39434;SDS011;66825;51.880;-0.518;2023-03-01T05:01:52;0.32;;;0.20;;
39434;SDS011;66825;51.880;-0.518;2023-03-01T05:04:23;0.25;;;0.20;;
39434;SDS011;66825;51.880;-0.518;2023-03-01T05:06:49;0.38;;;0.25;;
39434;SDS011;66825;51.880;-0.518;2023-03-01T05:09:14;0.35;;;0.30;;
39434;SDS011;66825;51.880;-0.518;2023-03-01T05:11:40;0.30;;;0.20;;
39434;SDS011;66825;51.880;-0.518;2023-03-01T05:14:06;0.95;;;0.20;;
39434;SDS011;66825;51.880;-0.518;2023-03-01T05:16:33;0.32;;;0.17;;
39434;SDS011;66825;51.880;-0.518;2023-03-01T05:18:59;0.30;;;0.30;;
39434;SDS011;66825;51.880;-0.518;2023-03-01T05:21:25;0.30;;;0.20;;
39434;SDS011;66825;51.880;-0.518;2023-03-01T05:23:50;0.20;;;0.20;;
39434;SDS011;66825;51.880;-0.518;2023-03-01T05:26:16;0.15;;;0.10;;
39434;SDS011;66825;51.880;-0.518;2023-03-01T05:28:44;0.28;;;0.20;;
39434;SDS011;66825;51.880;-0.518;2023-03-01T05:31:10;0.50;;;0.22;;
39434;SDS011;66825;51.880;-0.518;2023-03-01T05:33:39;0.25;;;0.20;;
39434;SDS011;66825;51.880;-0.518;2023-03-01T05:36:06;0.30;;;0.20;;
39434;SDS011;66825;51.880;-0.518;2023-03-01T05:38:33;0.20;;;0.10;;
39434;SDS011;66825;51.880;-0.518;2023-03-01T05:40:59;0.22;;;0.20;;
39434;SDS011;66825;51.880;-0.518;2023-03-01T05:43:24;0.40;;;0.30;;
39434;SDS011;66825;51.880;-0.518;2023-03-01T05:45:50;0.55;;;0.20;;
39434;SDS011;66825;51.880;-0.518;2023-03-01T05:48:16;0.52;;;0.30;;
39434;SDS011;66825;51.880;-0.518;2023-03-01T05:50:44;0.40;;;0.20;;
39434;SDS011;66825;51.880;-0.518;2023-03-01T05:53:16;0.20;;;0.20;;
39434;SDS011;66825;51.880;-0.518;2023-03-01T05:55:44;0.28;;;0.20;;
39434;SDS011;66825;51.880;-0.518;2023-03-01T05:58:18;0.30;;;0.22;;
39434;SDS011;66825;51.880;-0.518;2023-03-01T06:00:45;0.35;;;0.20;;
39434;SDS011;66825;51.880;-0.518;2023-03-01T06:03:13;0.50;;;0.20;;
39434;SDS011;66825;51.880;-0.518;2023-03-01T06:05:40;0.22;;;0.20;;
39434;SDS011;66825;51.880;-0.518;2023-03-01T06:08:07;0.40;;;0.20;;
39434;SDS011;66825;51.880;-0.518;2023-03-01T06:10:34;0.57;;;0.10;;
39434;SDS011;66825;51.880;-0.518;2023-03-01T06:12:59;0.30;;;0.20;;
39434;SDS011;66825;51.880;-0.518;2023-03-01T06:15:25;0.47;;;0.20;;
39434;SDS011;66825;51.880;-0.518;2023-03-01T06:17:53;0.70;;;0.20;;
39434;SDS011;66825;51.880;-0.518;2023-03-01T06:20:21;0.30;;;0.28;;
39434;SDS011;66825;51.880;-0.518;2023-03-01T06:22:48;0.30;;;0.20;;
39434;SDS011;66825;51.880;-0.518;2023-03-01T06:25:15;0.40;;;0.20;;
39434;SDS011;66825;51.880;-0.518;2023-03-01T06:27:42;0.30;;;0.20;;
39434;SDS011;66825;51.880;-0.518;2023-03-01T06:30:09;0.55;;;0.20;;
39434;SDS011;66825;51.880;-0.518;2023-03-01T06:32:37;0.40;;;0.28;;
39434;SDS011;66825;51.880;-0.518;2023-03-01T06:35:07;0.50;;;0.20;;
39434;SDS011;66825;51.880;-0.518;2023-03-01T06:37:34;0.30;;;0.20;;
39434;SDS011;66825;51.880;-0.518;2023-03-01T06:40:00;0.30;;;0.20;;
39434;SDS011;66825;51.880;-0.518;2023-03-01T06:42:32;0.52;;;0.22;;
39434;SDS011;66825;51.880;-0.518;2023-03-01T06:44:57;0.35;;;0.20;;
39434;SDS011;66825;51.880;-0.518;2023-03-01T06:47:22;0.40;;;0.30;;
39434;SDS011;66825;51.880;-0.518;2023-03-01T06:49:48;0.30;;;0.20;;
39434;SDS011;66825;51.880;-0.518;2023-03-01T06:52:13;0.32;;;0.20;;
39434;SDS011;66825;51.880;-0.518;2023-03-01T06:54:39;0.52;;;0.30;;
39434;SDS011;66825;51.880;-0.518;2023-03-01T06:57:04;0.38;;;0.30;;
39434;SDS011;66825;51.880;-0.518;2023-03-01T06:59:30;0.50;;;0.25;;
39434;SDS011;66825;51.880;-0.518;2023-03-01T07:01:56;0.30;;;0.20;;
39434;SDS011;66825;51.880;-0.518;2023-03-01T07:04:21;0.68;;;0.20;;
39434;SDS011;66825;51.880;-0.518;2023-03-01T07:06:47;0.32;;;0.17;;
39434;SDS011;66825;51.880;-0.518;2023-03-01T07:09:19;0.20;;;0.20;;
39434;SDS011;66825;51.880;-0.518;2023-03-01T07:11:47;0.30;;;0.20;;
39434;SDS011;66825;51.880;-0.518;2023-03-01T07:14:12;0.55;;;0.28;;
39434;SDS011;66825;51.880;-0.518;2023-03-01T07:16:38;0.30;;;0.20;;
39434;SDS011;66825;51.880;-0.518;2023-03-01T07:19:03;0.30;;;0.20;;
39434;SDS011;66825;51.880;-0.518;2023-03-01T07:21:30;0.30;;;0.20;;
39434;SDS011;66825;51.880;-0.518;2023-03-01T07:23:55;0.50;;;0.20;;
39434;SDS011;66825;51.880;-0.518;2023-03-01T07:26:21;0.30;;;0.20;;
39434;SDS011;66825;51.880;-0.518;2023-03-01T07:28:47;0.40;;;0.20;;
39434;SDS011;66825;51.880;-0.518;2023-03-01T07:31:12;0.50;;;0.20;;
39434;SDS011;66825;51.880;-0.518;2023-03-01T07:33:38;0.40;;;0.25;;
39434;SDS011;66825;51.880;-0.518;2023-03-01T07:36:04;0.30;;;0.20;;
39434;SDS011;66825;51.880;-0.518;2023-03-01T07:38:30;0.20;;;0.10;;
39434;SDS011;66825;51.880;-0.518;2023-03-01T07:41:00;0.45;;;0.30;;
39434;SDS011;66825;51.880;-0.518;2023-03-01T07:43:27;0.28;;;0.20;;
39434;SDS011;66825;51.880;-0.518;2023-03-01T07:45:54;0.35;;;0.20;;
39434;SDS011;66825;51.880;-0.518;2023-03-01T07:48:19;0.28;;;0.13;;
39434;SDS011;66825;51.880;-0.518;2023-03-01T07:50:45;0.47;;;0.30;;
39434;SDS011;66825;51.880;-0.518;2023-03-01T07:53:10;0.30;;;0.20;;
39434;SDS011;66825;51.880;-0.518;2023-03-01T07:55:36;0.28;;;0.20;;
39434;SDS011;66825;51.880;-0.518;2023-03-01T07:58:02;0.20;;;0.20;;
39434;SDS011;66825;51.880;-0.518;2023-03-01T08:00:28;0.52;;;0.30;;
39434;SDS011;66825;51.880;-0.518;2023-03-01T08:02:53;0.45;;;0.30;;
39434;SDS011;66825;51.880;-0.518;2023-03-01T08:05:19;0.52;;;0.30;;
39434;SDS011;66825;51.880;-0.518;2023-03-01T08:07:47;0.60;;;0.30;;
39434;SDS011;66825;51.880;-0.518;2023-03-01T08:10:12;0.50;;;0.20;;
39434;SDS011;66825;51.880;-0.518;2023-03-01T08:12:38;0.25;;;0.20;;
39434;SDS011;66825;51.880;-0.518;2023-03-01T08:15:03;0.40;;;0.20;;
39434;SDS011;66825;51.880;-0.518;2023-03-01T08:17:29;0.63;;;0.30;;
39434;SDS011;66825;51.880;-0.518;2023-03-01T08:19:54;0.50;;;0.20;;
39434;SDS011;66825;51.880;-0.518;2023-03-01T08:22:20;0.82;;;0.30;;
39434;SDS011;66825;51.880;-0.518;2023-03-01T08:24:46;0.40;;;0.22;;
39434;SDS011;66825;51.880;-0.518;2023-03-01T08:27:11;0.47;;;0.30;;
39434;SDS011;66825;51.880;-0.518;2023-03-01T08:29:38;0.50;;;0.20;;
39434;SDS011;66825;51.880;-0.518;2023-03-01T08:32:03;0.45;;;0.20;;
39434;SDS011;66825;51.880;-0.518;2023-03-01T08:34:29;0.70;;;0.22;;
39434;SDS011;66825;51.880;-0.518;2023-03-01T08:36:56;0.90;;;0.30;;
39434;SDS011;66825;51.880;-0.518;2023-03-01T08:39:21;1.90;;;0.30;;
39434;SDS011;66825;51.880;-0.518;2023-03-01T08:41:47;0.40;;;0.28;;
39434;SDS011;66825;51.880;-0.518;2023-03-01T08:44:13;0.80;;;0.35;;
39434;SDS011;66825;51.880;-0.518;2023-03-01T08:46:43;0.82;;;0.30;;
39434;SDS011;66825;51.880;-0.518;2023-03-01T08:49:11;0.75;;;0.40;;
39434;SDS011;66825;51.880;-0.518;2023-03-01T08:51:38;0.52;;;0.30;;
39434;SDS011;66825;51.880;-0.518;2023-03-01T08:54:05;0.52;;;0.40;;
39434;SDS011;66825;51.880;-0.518;2023-03-01T08:56:32;2.05;;;0.43;;
39434;SDS011;66825;51.880;-0.518;2023-03-01T08:58:58;1.33;;;0.43;;
39434;SDS011;66825;51.880;-0.518;2023-03-01T09:01:24;1.02;;;0.52;;
39434;SDS011;66825;51.880;-0.518;2023-03-01T09:03:49;2.00;;;0.50;;
39434;SDS011;66825;51.880;-0.518;2023-03-01T09:06:15;2.83;;;0.50;;
39434;SDS011;66825;51.880;-0.518;2023-03-01T09:08:42;0.90;;;0.40;;
39434;SDS011;66825;51.880;-0.518;2023-03-01T09:11:10;1.80;;;0.50;;
39434;SDS011;66825;51.880;-0.518;2023-03-01T09:13:37;5.65;;;1.10;;
39434;SDS011;66825;51.880;-0.518;2023-03-01T09:16:04;3.25;;;1.23;;
39434;SDS011;66825;51.880;-0.518;2023-03-01T09:18:31;4.68;;;1.13;;
39434;SDS011;66825;51.880;-0.518;2023-03-01T09:21:02;3.20;;;0.93;;
39434;SDS011;66825;51.880;-0.518;2023-03-01T09:23:36;6.75;;;1.10;;
39434;SDS011;66825;51.880;-0.518;2023-03-01T09:26:04;4.85;;;1.27;;
39434;SDS011;66825;51.880;-0.518;2023-03-01T09:28:30;5.22;;;1.10;;
39434;SDS011;66825;51.880;-0.518;2023-03-01T09:30:59;2.92;;;1.08;;
39434;SDS011;66825;51.880;-0.518;2023-03-01T09:33:25;5.07;;;1.20;;
39434;SDS011;66825;51.880;-0.518;2023-03-01T09:35:58;4.00;;;1.30;;
39434;SDS011;66825;51.880;-0.518;2023-03-01T09:38:25;3.03;;;1.30;;
39434;SDS011;66825;51.880;-0.518;2023-03-01T09:40:51;4.22;;;1.30;;
39434;SDS011;66825;51.880;-0.518;2023-03-01T09:46:12;3.42;;;1.20;;
39434;SDS011;66825;51.880;-0.518;2023-03-01T09:51:27;4.03;;;1.20;;
39434;SDS011;66825;51.880;-0.518;2023-03-01T09:53:56;3.55;;;1.17;;
39434;SDS011;66825;51.880;-0.518;2023-03-01T09:56:44;3.50;;;1.10;;
39434;SDS011;66825;51.880;-0.518;2023-03-01T09:59:25;3.47;;;1.00;;
39434;SDS011;66825;51.880;-0.518;2023-03-01T10:02:01;3.67;;;1.33;;
39434;SDS011;66825;51.880;-0.518;2023-03-01T10:04:46;3.75;;;1.25;;
39434;SDS011;66825;51.880;-0.518;2023-03-01T10:12:53;4.53;;;1.10;;
39434;SDS011;66825;51.880;-0.518;2023-03-01T10:15:26;5.57;;;1.60;;
39434;SDS011;66825;51.880;-0.518;2023-03-01T10:18:10;4.45;;;1.40;;
39434;SDS011;66825;51.880;-0.518;2023-03-01T10:20:46;3.35;;;1.20;;
39434;SDS011;66825;51.880;-0.518;2023-03-01T10:23:17;6.53;;;1.50;;
39434;SDS011;66825;51.880;-0.518;2023-03-01T10:28:30;7.10;;;1.77;;
39434;SDS011;66825;51.880;-0.518;2023-03-01T10:31:24;5.30;;;1.65;;
39434;SDS011;66825;51.880;-0.518;2023-03-01T10:33:54;6.40;;;1.70;;
39434;SDS011;66825;51.880;-0.518;2023-03-01T10:36:22;3.85;;;1.30;;
39434;SDS011;66825;51.880;-0.518;2023-03-01T10:38:53;4.43;;;1.65;;
39434;SDS011;66825;51.880;-0.518;2023-03-01T10:41:22;8.73;;;1.70;;
39434;SDS011;66825;51.880;-0.518;2023-03-01T10:43:49;5.18;;;1.30;;
39434;SDS011;66825;51.880;-0.518;2023-03-01T10:49:16;6.85;;;1.70;;
39434;SDS011;66825;51.880;-0.518;2023-03-01T10:51:47;4.35;;;1.60;;
39434;SDS011;66825;51.880;-0.518;2023-03-01T10:56:53;4.43;;;1.42;;
39434;SDS011;66825;51.880;-0.518;2023-03-01T11:04:34;1.98;;;1.00;;
39434;SDS011;66825;51.880;-0.518;2023-03-01T11:07:01;2.67;;;1.25;;
39434;SDS011;66825;51.880;-0.518;2023-03-01T11:09:30;2.80;;;1.20;;
39434;SDS011;66825;51.880;-0.518;2023-03-01T11:12:03;3.97;;;1.40;;
39434;SDS011;66825;51.880;-0.518;2023-03-01T11:14:33;3.00;;;1.20;;
39434;SDS011;66825;51.880;-0.518;2023-03-01T11:19:37;2.80;;;1.20;;
39434;SDS011;66825;51.880;-0.518;2023-03-01T11:22:12;3.85;;;1.30;;
39434;SDS011;66825;51.880;-0.518;2023-03-01T11:27:35;6.63;;;1.40;;
39434;SDS011;66825;51.880;-0.518;2023-03-01T11:30:05;3.33;;;1.50;;
39434;SDS011;66825;51.880;-0.518;2023-03-01T11:33:13;4.82;;;1.20;;
39434;SDS011;66825;51.880;-0.518;2023-03-01T11:35:53;6.07;;;1.70;;
39434;SDS011;66825;51.880;-0.518;2023-03-01T11:38:23;4.20;;;1.83;;
39434;SDS011;66825;51.880;-0.518;2023-03-01T12:02:32;7.57;;;1.92;;
39434;SDS011;66825;51.880;-0.518;2023-03-01T12:11:44;8.48;;;2.55;;
39434;SDS011;66825;51.880;-0.518;2023-03-01T12:17:02;7.60;;;2.50;;
39434;SDS011;66825;51.880;-0.518;2023-03-01T12:25:28;4.13;;;1.60;;
39434;SDS011;66825;51.880;-0.518;2023-03-01T12:28:10;5.80;;;2.20;;
39434;SDS011;66825;51.880;-0.518;2023-03-01T12:30:56;5.35;;;1.98;;
39434;SDS011;66825;51.880;-0.518;2023-03-01T12:36:36;5.15;;;1.80;;
39434;SDS011;66825;51.880;-0.518;2023-03-01T12:50:47;2.85;;;1.13;;
39434;SDS011;66825;51.880;-0.518;2023-03-01T12:53:24;2.97;;;1.35;;
39434;SDS011;66825;51.880;-0.518;2023-03-01T12:56:00;3.15;;;1.20;;
39434;SDS011;66825;51.880;-0.518;2023-03-01T13:04:15;1.85;;;1.10;;
39434;SDS011;66825;51.880;-0.518;2023-03-01T13:09:33;2.33;;;1.20;;
39434;SDS011;66825;51.880;-0.518;2023-03-01T13:12:41;3.10;;;0.98;;
39434;SDS011;66825;51.880;-0.518;2023-03-01T13:17:46;2.38;;;0.90;;
39434;SDS011;66825;51.880;-0.518;2023-03-01T13:20:14;1.95;;;1.00;;
39434;SDS011;66825;51.880;-0.518;2023-03-01T13:22:42;2.10;;;1.00;;
39434;SDS011;66825;51.880;-0.518;2023-03-01T13:25:18;3.60;;;1.08;;
39434;SDS011;66825;51.880;-0.518;2023-03-01T13:27:45;1.80;;;1.10;;
39434;SDS011;66825;51.880;-0.518;2023-03-01T13:33:32;2.05;;;0.93;;
39434;SDS011;66825;51.880;-0.518;2023-03-01T13:36:05;2.22;;;1.00;;
39434;SDS011;66825;51.880;-0.518;2023-03-01T13:41:52;8.13;;;2.70;;
39434;SDS011;66825;51.880;-0.518;2023-03-01T13:47:07;4.63;;;1.50;;
39434;SDS011;66825;51.880;-0.518;2023-03-01T13:52:41;2.50;;;0.90;;
39434;SDS011;66825;51.880;-0.518;2023-03-01T13:57:57;5.22;;;1.10;;
39434;SDS011;66825;51.880;-0.518;2023-03-01T14:03:08;3.42;;;1.27;;
39434;SDS011;66825;51.880;-0.518;2023-03-01T14:05:40;2.63;;;1.00;;
39434;SDS011;66825;51.880;-0.518;2023-03-01T14:08:18;4.53;;;1.38;;
39434;SDS011;66825;51.880;-0.518;2023-03-01T14:13:23;2.40;;;0.90;;
39434;SDS011;66825;51.880;-0.518;2023-03-01T14:16:17;4.57;;;1.00;;
39434;SDS011;66825;51.880;-0.518;2023-03-01T14:21:29;2.67;;;0.98;;
39434;SDS011;66825;51.880;-0.518;2023-03-01T14:23:55;4.43;;;1.30;;
39434;SDS011;66825;51.880;-0.518;2023-03-01T14:26:22;5.60;;;1.65;;
39434;SDS011;66825;51.880;-0.518;2023-03-01T14:28:48;6.03;;;1.75;;
39434;SDS011;66825;51.880;-0.518;2023-03-01T14:34:01;5.85;;;2.08;;
39434;SDS011;66825;51.880;-0.518;2023-03-01T14:36:28;7.35;;;1.80;;
39434;SDS011;66825;51.880;-0.518;2023-03-01T14:38:56;6.80;;;1.80;;
39434;SDS011;66825;51.880;-0.518;2023-03-01T14:41:30;4.68;;;1.40;;
39434;SDS011;66825;51.880;-0.518;2023-03-01T14:44:03;4.85;;;1.50;;
39434;SDS011;66825;51.880;-0.518;2023-03-01T14:46:38;7.47;;;1.58;;
39434;SDS011;66825;51.880;-0.518;2023-03-01T14:49:16;3.83;;;1.30;;
39434;SDS011;66825;51.880;-0.518;2023-03-01T14:52:19;6.05;;;1.42;;
39434;SDS011;66825;51.880;-0.518;2023-03-01T14:54:50;7.40;;;1.65;;
39434;SDS011;66825;51.880;-0.518;2023-03-01T14:57:21;6.32;;;1.63;;
39434;SDS011;66825;51.880;-0.518;2023-03-01T14:59:50;5.20;;;1.40;;
39434;SDS011;66825;51.880;-0.518;2023-03-01T15:02:20;5.00;;;1.58;;
39434;SDS011;66825;51.880;-0.518;2023-03-01T15:04:51;8.25;;;1.98;;
39434;SDS011;66825;51.880;-0.518;2023-03-01T15:07:21;6.47;;;2.10;;
39434;SDS011;66825;51.880;-0.518;2023-03-01T15:09:51;8.60;;;1.70;;
39434;SDS011;66825;51.880;-0.518;2023-03-01T15:12:24;7.95;;;2.15;;
39434;SDS011;66825;51.880;-0.518;2023-03-01T15:14:53;7.10;;;1.75;;
39434;SDS011;66825;51.880;-0.518;2023-03-01T15:19:57;9.18;;;1.90;;
39434;SDS011;66825;51.880;-0.518;2023-03-01T15:22:24;6.95;;;1.73;;
39434;SDS011;66825;51.880;-0.518;2023-03-01T15:24:51;7.45;;;2.00;;
39434;SDS011;66825;51.880;-0.518;2023-03-01T15:27:19;5.20;;;1.60;;
39434;SDS011;66825;51.880;-0.518;2023-03-01T15:29:48;4.65;;;1.80;;
39434;SDS011;66825;51.880;-0.518;2023-03-01T15:32:32;5.57;;;1.52;;
39434;SDS011;66825;51.880;-0.518;2023-03-01T15:38:35;7.70;;;2.10;;
39434;SDS011;66825;51.880;-0.518;2023-03-01T15:44:00;6.22;;;1.50;;
39434;SDS011;66825;51.880;-0.518;2023-03-01T15:46:38;5.30;;;1.55;;
39434;SDS011;66825;51.880;-0.518;2023-03-01T15:49:05;5.78;;;1.70;;
39434;SDS011;66825;51.880;-0.518;2023-03-01T15:51:49;6.45;;;1.83;;
39434;SDS011;66825;51.880;-0.518;2023-03-01T15:54:19;5.60;;;1.63;;
39434;SDS011;66825;51.880;-0.518;2023-03-01T15:56:47;3.63;;;1.50;;
39434;SDS011;66825;51.880;-0.518;2023-03-01T15:59:13;5.97;;;1.45;;
39434;SDS011;66825;51.880;-0.518;2023-03-01T16:01:42;5.15;;;1.80;;
39434;SDS011;66825;51.880;-0.518;2023-03-01T16:04:11;4.78;;;1.60;;
39434;SDS011;66825;51.880;-0.518;2023-03-01T16:06:41;5.30;;;1.50;;
39434;SDS011;66825;51.880;-0.518;2023-03-01T16:09:07;4.82;;;1.30;;
39434;SDS011;66825;51.880;-0.518;2023-03-01T16:11:35;3.70;;;1.40;;
39434;SDS011;66825;51.880;-0.518;2023-03-01T16:14:02;5.10;;;1.70;;
39434;SDS011;66825;51.880;-0.518;2023-03-01T16:16:28;7.40;;;1.70;;
39434;SDS011;66825;51.880;-0.518;2023-03-01T16:18:53;6.07;;;1.50;;
39434;SDS011;66825;51.880;-0.518;2023-03-01T16:21:20;6.68;;;1.90;;
39434;SDS011;66825;51.880;-0.518;2023-03-01T16:23:48;8.43;;;2.30;;
39434;SDS011;66825;51.880;-0.518;2023-03-01T16:26:14;7.45;;;2.10;;
39434;SDS011;66825;51.880;-0.518;2023-03-01T16:28:40;9.40;;;2.20;;
39434;SDS011;66825;51.880;-0.518;2023-03-01T16:31:07;7.45;;;2.30;;
39434;SDS011;66825;51.880;-0.518;2023-03-01T16:33:32;5.75;;;2.08;;
39434;SDS011;66825;51.880;-0.518;2023-03-01T16:35:59;8.35;;;2.45;;
39434;SDS011;66825;51.880;-0.518;2023-03-01T16:38:27;7.75;;;2.40;;
39434;SDS011;66825;51.880;-0.518;2023-03-01T16:40:53;9.70;;;2.72;;
39434;SDS011;66825;51.880;-0.518;2023-03-01T16:43:18;7.88;;;2.63;;
39434;SDS011;66825;51.880;-0.518;2023-03-01T16:45:44;6.70;;;2.90;;
39434;SDS011;66825;51.880;-0.518;2023-03-01T16:48:10;8.57;;;2.40;;
39434;SDS011;66825;51.880;-0.518;2023-03-01T16:50:36;7.75;;;2.47;;
39434;SDS011;66825;51.880;-0.518;2023-03-01T16:53:02;9.35;;;2.85;;
39434;SDS011;66825;51.880;-0.518;2023-03-01T16:55:28;7.82;;;2.75;;
39434;SDS011;66825;51.880;-0.518;2023-03-01T16:57:53;6.65;;;2.35;;
39434;SDS011;66825;51.880;-0.518;2023-03-01T17:00:19;8.15;;;2.28;;
39434;SDS011;66825;51.880;-0.518;2023-03-01T17:02:45;6.32;;;2.60;;
39434;SDS011;66825;51.880;-0.518;2023-03-01T17:05:11;8.20;;;2.70;;
39434;SDS011;66825;51.880;-0.518;2023-03-01T17:07:37;5.63;;;2.40;;